sensor_id;sensor_type;location;lat;lon;timestamp;P1;durP1;ratioP1;P2;durP2;ratioP2
75774;SDS011;64505;51.458;7.556;2023-04-16T00:00:40;32.47;;;16.42;;
75774;SDS011;64505;51.458;7.556;2023-04-16T00:02:42;29.98;;;15.57;;
75774;SDS011;64505;51.458;7.556;2023-04-16T00:04:43;28.13;;;14.00;;
75774;SDS011;64505;51.458;7.556;2023-04-16T00:06:45;32.13;;;15.40;;
75774;SDS011;64505;51.458;7.556;2023-04-16T00:08:47;32.90;;;17.50;;
75774;SDS011;64505;51.458;7.556;2023-04-16T00:10:48;34.45;;;16.73;;
75774;SDS011;64505;51.458;7.556;2023-04-16T00:12:50;35.47;;;16.45;;
75774;SDS011;64505;51.458;7.556;2023-04-16T00:14:52;32.45;;;16.25;;
75774;SDS011;64505;51.458;7.556;2023-04-16T00:16:53;36.92;;;17.27;;
75774;SDS011;64505;51.458;7.556;2023-04-16T00:18:55;33.55;;;17.08;;
75774;SDS011;64505;51.458;7.556;2023-04-16T00:20:56;36.15;;;17.20;;
75774;SDS011;64505;51.458;7.556;2023-04-16T00:22:58;33.90;;;16.42;;
75774;SDS011;64505;51.458;7.556;2023-04-16T00:24:59;37.65;;;18.02;;
75774;SDS011;64505;51.458;7.556;2023-04-16T00:27:00;39.00;;;18.00;;
75774;SDS011;64505;51.458;7.556;2023-04-16T00:29:02;40.40;;;17.15;;
75774;SDS011;64505;51.458;7.556;2023-04-16T00:31:03;33.35;;;16.70;;
75774;SDS011;64505;51.458;7.556;2023-04-16T00:33:05;35.67;;;16.45;;
75774;SDS011;64505;51.458;7.556;2023-04-16T00:35:07;36.38;;;16.73;;
75774;SDS011;64505;51.458;7.556;2023-04-16T00:37:08;32.83;;;15.80;;
75774;SDS011;64505;51.458;7.556;2023-04-16T00:39:10;35.65;;;16.42;;
75774;SDS011;64505;51.458;7.556;2023-04-16T00:41:11;35.28;;;16.15;;
75774;SDS011;64505;51.458;7.556;2023-04-16T00:43:19;38.25;;;17.02;;
75774;SDS011;64505;51.458;7.556;2023-04-16T00:45:22;38.80;;;16.63;;
75774;SDS011;64505;51.458;7.556;2023-04-16T00:47:23;34.30;;;16.83;;
75774;SDS011;64505;51.458;7.556;2023-04-16T00:49:25;35.85;;;15.05;;
75774;SDS011;64505;51.458;7.556;2023-04-16T00:51:27;37.15;;;17.48;;
75774;SDS011;64505;51.458;7.556;2023-04-16T00:53:29;35.03;;;15.82;;
75774;SDS011;64505;51.458;7.556;2023-04-16T00:55:31;34.40;;;16.38;;
75774;SDS011;64505;51.458;7.556;2023-04-16T00:57:35;34.58;;;16.65;;
75774;SDS011;64505;51.458;7.556;2023-04-16T00:59:36;37.05;;;15.23;;
75774;SDS011;64505;51.458;7.556;2023-04-16T01:01:38;36.60;;;16.45;;
75774;SDS011;64505;51.458;7.556;2023-04-16T01:03:41;31.42;;;15.93;;
75774;SDS011;64505;51.458;7.556;2023-04-16T01:05:48;33.20;;;15.52;;
75774;SDS011;64505;51.458;7.556;2023-04-16T01:07:55;25.90;;;14.48;;
75774;SDS011;64505;51.458;7.556;2023-04-16T01:09:59;30.67;;;16.20;;
75774;SDS011;64505;51.458;7.556;2023-04-16T01:12:00;30.13;;;14.88;;
75774;SDS011;64505;51.458;7.556;2023-04-16T01:14:02;28.13;;;14.45;;
75774;SDS011;64505;51.458;7.556;2023-04-16T01:16:07;33.72;;;14.88;;
75774;SDS011;64505;51.458;7.556;2023-04-16T01:18:17;28.88;;;15.13;;
75774;SDS011;64505;51.458;7.556;2023-04-16T01:20:20;29.08;;;14.55;;
75774;SDS011;64505;51.458;7.556;2023-04-16T01:22:21;32.08;;;14.15;;
75774;SDS011;64505;51.458;7.556;2023-04-16T01:24:23;31.00;;;13.73;;
75774;SDS011;64505;51.458;7.556;2023-04-16T01:26:24;32.15;;;16.17;;
75774;SDS011;64505;51.458;7.556;2023-04-16T01:28:25;26.98;;;14.07;;
75774;SDS011;64505;51.458;7.556;2023-04-16T01:30:27;29.15;;;14.25;;
75774;SDS011;64505;51.458;7.556;2023-04-16T01:32:30;34.83;;;14.73;;
75774;SDS011;64505;51.458;7.556;2023-04-16T01:34:32;24.42;;;12.75;;
75774;SDS011;64505;51.458;7.556;2023-04-16T01:36:33;28.98;;;14.75;;
75774;SDS011;64505;51.458;7.556;2023-04-16T01:38:35;36.40;;;13.25;;
75774;SDS011;64505;51.458;7.556;2023-04-16T01:40:36;27.75;;;13.85;;
75774;SDS011;64505;51.458;7.556;2023-04-16T01:42:38;25.55;;;13.35;;
75774;SDS011;64505;51.458;7.556;2023-04-16T01:44:40;25.23;;;13.18;;
75774;SDS011;64505;51.458;7.556;2023-04-16T01:46:41;24.55;;;12.40;;
75774;SDS011;64505;51.458;7.556;2023-04-16T01:48:43;27.23;;;12.00;;
75774;SDS011;64505;51.458;7.556;2023-04-16T01:50:45;32.22;;;12.32;;
75774;SDS011;64505;51.458;7.556;2023-04-16T01:52:47;27.05;;;11.27;;
75774;SDS011;64505;51.458;7.556;2023-04-16T01:54:48;23.42;;;11.93;;
75774;SDS011;64505;51.458;7.556;2023-04-16T01:56:49;26.42;;;12.88;;
75774;SDS011;64505;51.458;7.556;2023-04-16T01:58:51;32.38;;;12.43;;
75774;SDS011;64505;51.458;7.556;2023-04-16T02:00:53;25.98;;;12.60;;
75774;SDS011;64505;51.458;7.556;2023-04-16T02:02:54;23.75;;;11.98;;
75774;SDS011;64505;51.458;7.556;2023-04-16T02:04:56;24.63;;;11.52;;
75774;SDS011;64505;51.458;7.556;2023-04-16T02:06:57;33.28;;;12.85;;
75774;SDS011;64505;51.458;7.556;2023-04-16T02:08:59;24.23;;;11.75;;
75774;SDS011;64505;51.458;7.556;2023-04-16T02:11:00;24.27;;;11.90;;
75774;SDS011;64505;51.458;7.556;2023-04-16T02:13:02;27.20;;;11.90;;
75774;SDS011;64505;51.458;7.556;2023-04-16T02:15:03;41.28;;;13.10;;
75774;SDS011;64505;51.458;7.556;2023-04-16T02:17:05;29.55;;;10.73;;
75774;SDS011;64505;51.458;7.556;2023-04-16T02:19:06;24.33;;;11.57;;
75774;SDS011;64505;51.458;7.556;2023-04-16T02:21:08;32.60;;;11.20;;
75774;SDS011;64505;51.458;7.556;2023-04-16T02:23:10;26.70;;;11.57;;
75774;SDS011;64505;51.458;7.556;2023-04-16T02:25:12;24.38;;;11.98;;
75774;SDS011;64505;51.458;7.556;2023-04-16T02:27:14;52.40;;;15.77;;
75774;SDS011;64505;51.458;7.556;2023-04-16T02:29:16;34.58;;;14.98;;
75774;SDS011;64505;51.458;7.556;2023-04-16T02:31:17;37.20;;;14.18;;
75774;SDS011;64505;51.458;7.556;2023-04-16T02:33:19;37.15;;;14.13;;
75774;SDS011;64505;51.458;7.556;2023-04-16T02:35:21;31.20;;;15.07;;
75774;SDS011;64505;51.458;7.556;2023-04-16T02:37:22;26.30;;;12.93;;
75774;SDS011;64505;51.458;7.556;2023-04-16T02:39:25;30.38;;;14.52;;
75774;SDS011;64505;51.458;7.556;2023-04-16T02:41:27;31.20;;;14.38;;
75774;SDS011;64505;51.458;7.556;2023-04-16T02:43:28;29.55;;;15.07;;
75774;SDS011;64505;51.458;7.556;2023-04-16T02:45:30;28.42;;;14.70;;
75774;SDS011;64505;51.458;7.556;2023-04-16T02:47:31;31.50;;;16.05;;
75774;SDS011;64505;51.458;7.556;2023-04-16T02:49:33;29.92;;;15.52;;
75774;SDS011;64505;51.458;7.556;2023-04-16T02:51:35;33.90;;;16.88;;
75774;SDS011;64505;51.458;7.556;2023-04-16T02:53:37;30.38;;;16.60;;
75774;SDS011;64505;51.458;7.556;2023-04-16T02:55:38;32.85;;;15.40;;
75774;SDS011;64505;51.458;7.556;2023-04-16T02:57:40;30.20;;;15.60;;
75774;SDS011;64505;51.458;7.556;2023-04-16T02:59:42;32.05;;;15.43;;
75774;SDS011;64505;51.458;7.556;2023-04-16T03:01:43;32.55;;;15.15;;
75774;SDS011;64505;51.458;7.556;2023-04-16T03:03:45;29.63;;;15.23;;
75774;SDS011;64505;51.458;7.556;2023-04-16T03:05:47;29.73;;;13.73;;
75774;SDS011;64505;51.458;7.556;2023-04-16T03:07:48;27.88;;;14.65;;
75774;SDS011;64505;51.458;7.556;2023-04-16T03:09:50;24.33;;;12.07;;
75774;SDS011;64505;51.458;7.556;2023-04-16T03:11:52;29.13;;;14.13;;
75774;SDS011;64505;51.458;7.556;2023-04-16T03:13:53;28.17;;;14.00;;
75774;SDS011;64505;51.458;7.556;2023-04-16T03:15:55;31.85;;;14.60;;
75774;SDS011;64505;51.458;7.556;2023-04-16T03:17:56;29.92;;;14.32;;
75774;SDS011;64505;51.458;7.556;2023-04-16T03:19:58;29.48;;;14.52;;
75774;SDS011;64505;51.458;7.556;2023-04-16T03:21:59;27.55;;;13.48;;
75774;SDS011;64505;51.458;7.556;2023-04-16T03:24:01;30.70;;;14.30;;
75774;SDS011;64505;51.458;7.556;2023-04-16T03:26:02;28.95;;;14.05;;
75774;SDS011;64505;51.458;7.556;2023-04-16T03:28:04;27.83;;;14.93;;
75774;SDS011;64505;51.458;7.556;2023-04-16T03:30:06;28.98;;;15.27;;
75774;SDS011;64505;51.458;7.556;2023-04-16T03:32:08;28.85;;;14.98;;
75774;SDS011;64505;51.458;7.556;2023-04-16T03:34:10;30.25;;;16.98;;
75774;SDS011;64505;51.458;7.556;2023-04-16T03:36:11;29.70;;;15.18;;
75774;SDS011;64505;51.458;7.556;2023-04-16T03:38:12;31.35;;;14.82;;
75774;SDS011;64505;51.458;7.556;2023-04-16T03:40:14;33.53;;;15.27;;
75774;SDS011;64505;51.458;7.556;2023-04-16T03:42:15;31.20;;;15.60;;
75774;SDS011;64505;51.458;7.556;2023-04-16T03:44:17;31.95;;;15.30;;
75774;SDS011;64505;51.458;7.556;2023-04-16T03:46:18;29.58;;;15.88;;
75774;SDS011;64505;51.458;7.556;2023-04-16T03:48:20;35.35;;;16.17;;
75774;SDS011;64505;51.458;7.556;2023-04-16T03:50:22;31.98;;;16.40;;
75774;SDS011;64505;51.458;7.556;2023-04-16T03:52:23;31.20;;;16.58;;
75774;SDS011;64505;51.458;7.556;2023-04-16T03:54:24;30.65;;;15.65;;
75774;SDS011;64505;51.458;7.556;2023-04-16T03:56:26;28.58;;;15.40;;
75774;SDS011;64505;51.458;7.556;2023-04-16T03:58:28;35.75;;;17.20;;
75774;SDS011;64505;51.458;7.556;2023-04-16T04:00:29;31.70;;;14.85;;
75774;SDS011;64505;51.458;7.556;2023-04-16T04:02:31;34.15;;;16.83;;
75774;SDS011;64505;51.458;7.556;2023-04-16T04:04:33;32.20;;;16.15;;
75774;SDS011;64505;51.458;7.556;2023-04-16T04:06:35;34.03;;;16.85;;
75774;SDS011;64505;51.458;7.556;2023-04-16T04:08:36;31.83;;;16.42;;
75774;SDS011;64505;51.458;7.556;2023-04-16T04:10:38;36.83;;;16.98;;
75774;SDS011;64505;51.458;7.556;2023-04-16T04:12:40;37.33;;;18.27;;
75774;SDS011;64505;51.458;7.556;2023-04-16T04:14:41;34.85;;;16.98;;
75774;SDS011;64505;51.458;7.556;2023-04-16T04:16:43;35.03;;;17.60;;
75774;SDS011;64505;51.458;7.556;2023-04-16T04:18:44;35.30;;;17.63;;
75774;SDS011;64505;51.458;7.556;2023-04-16T04:20:46;36.25;;;18.50;;
75774;SDS011;64505;51.458;7.556;2023-04-16T04:22:47;39.00;;;17.75;;
75774;SDS011;64505;51.458;7.556;2023-04-16T04:24:50;37.90;;;18.15;;
75774;SDS011;64505;51.458;7.556;2023-04-16T04:26:51;41.42;;;18.98;;
75774;SDS011;64505;51.458;7.556;2023-04-16T04:28:53;43.15;;;19.40;;
75774;SDS011;64505;51.458;7.556;2023-04-16T04:30:55;37.65;;;19.58;;
75774;SDS011;64505;51.458;7.556;2023-04-16T04:33:00;43.83;;;20.45;;
75774;SDS011;64505;51.458;7.556;2023-04-16T04:35:02;46.63;;;20.15;;
75774;SDS011;64505;51.458;7.556;2023-04-16T04:37:03;48.85;;;22.45;;
75774;SDS011;64505;51.458;7.556;2023-04-16T04:39:05;47.80;;;22.20;;
75774;SDS011;64505;51.458;7.556;2023-04-16T04:41:07;48.17;;;23.15;;
75774;SDS011;64505;51.458;7.556;2023-04-16T04:43:09;45.10;;;21.30;;
75774;SDS011;64505;51.458;7.556;2023-04-16T04:45:10;44.92;;;21.42;;
75774;SDS011;64505;51.458;7.556;2023-04-16T04:47:12;48.42;;;22.45;;
75774;SDS011;64505;51.458;7.556;2023-04-16T04:49:14;51.25;;;23.42;;
75774;SDS011;64505;51.458;7.556;2023-04-16T04:51:16;47.30;;;23.20;;
75774;SDS011;64505;51.458;7.556;2023-04-16T04:53:17;48.10;;;22.63;;
75774;SDS011;64505;51.458;7.556;2023-04-16T04:55:19;46.85;;;22.20;;
75774;SDS011;64505;51.458;7.556;2023-04-16T04:57:20;48.67;;;21.58;;
75774;SDS011;64505;51.458;7.556;2023-04-16T04:59:22;44.63;;;20.08;;
75774;SDS011;64505;51.458;7.556;2023-04-16T05:01:24;47.47;;;21.77;;
75774;SDS011;64505;51.458;7.556;2023-04-16T05:03:26;39.28;;;19.73;;
75774;SDS011;64505;51.458;7.556;2023-04-16T05:05:27;43.22;;;20.27;;
75774;SDS011;64505;51.458;7.556;2023-04-16T05:07:29;43.97;;;19.88;;
75774;SDS011;64505;51.458;7.556;2023-04-16T05:09:30;46.13;;;19.55;;
75774;SDS011;64505;51.458;7.556;2023-04-16T05:11:33;38.00;;;18.30;;
75774;SDS011;64505;51.458;7.556;2023-04-16T05:13:34;41.83;;;18.92;;
75774;SDS011;64505;51.458;7.556;2023-04-16T05:15:36;42.85;;;19.10;;
75774;SDS011;64505;51.458;7.556;2023-04-16T05:17:37;44.75;;;19.73;;
75774;SDS011;64505;51.458;7.556;2023-04-16T05:19:39;46.28;;;19.35;;
75774;SDS011;64505;51.458;7.556;2023-04-16T05:21:40;39.90;;;17.55;;
75774;SDS011;64505;51.458;7.556;2023-04-16T05:23:42;35.47;;;17.60;;
75774;SDS011;64505;51.458;7.556;2023-04-16T05:25:43;39.03;;;17.38;;
75774;SDS011;64505;51.458;7.556;2023-04-16T05:27:45;41.75;;;19.83;;
75774;SDS011;64505;51.458;7.556;2023-04-16T05:29:46;38.58;;;18.50;;
75774;SDS011;64505;51.458;7.556;2023-04-16T05:31:48;39.50;;;18.63;;
75774;SDS011;64505;51.458;7.556;2023-04-16T05:33:50;37.22;;;18.33;;
75774;SDS011;64505;51.458;7.556;2023-04-16T05:35:51;38.75;;;18.52;;
75774;SDS011;64505;51.458;7.556;2023-04-16T05:37:52;46.92;;;20.05;;
75774;SDS011;64505;51.458;7.556;2023-04-16T05:39:54;38.78;;;19.02;;
75774;SDS011;64505;51.458;7.556;2023-04-16T05:41:55;43.72;;;20.65;;
75774;SDS011;64505;51.458;7.556;2023-04-16T05:43:57;37.88;;;18.45;;
75774;SDS011;64505;51.458;7.556;2023-04-16T05:45:58;45.45;;;20.40;;
75774;SDS011;64505;51.458;7.556;2023-04-16T05:48:00;44.58;;;20.00;;
75774;SDS011;64505;51.458;7.556;2023-04-16T05:50:02;44.65;;;20.05;;
75774;SDS011;64505;51.458;7.556;2023-04-16T05:52:03;40.28;;;19.63;;
75774;SDS011;64505;51.458;7.556;2023-04-16T05:54:05;43.38;;;18.48;;
75774;SDS011;64505;51.458;7.556;2023-04-16T05:56:07;44.78;;;19.90;;
75774;SDS011;64505;51.458;7.556;2023-04-16T05:58:08;38.00;;;18.65;;
75774;SDS011;64505;51.458;7.556;2023-04-16T06:00:10;43.53;;;19.45;;
75774;SDS011;64505;51.458;7.556;2023-04-16T06:02:11;42.42;;;20.10;;
75774;SDS011;64505;51.458;7.556;2023-04-16T06:04:13;38.75;;;18.90;;
75774;SDS011;64505;51.458;7.556;2023-04-16T06:06:15;39.03;;;19.17;;
75774;SDS011;64505;51.458;7.556;2023-04-16T06:08:16;39.50;;;19.58;;
75774;SDS011;64505;51.458;7.556;2023-04-16T06:10:18;43.17;;;20.05;;
75774;SDS011;64505;51.458;7.556;2023-04-16T06:12:19;39.08;;;19.42;;
75774;SDS011;64505;51.458;7.556;2023-04-16T06:14:21;41.92;;;19.10;;
75774;SDS011;64505;51.458;7.556;2023-04-16T06:16:22;39.88;;;18.95;;
75774;SDS011;64505;51.458;7.556;2023-04-16T06:18:24;42.72;;;19.35;;
75774;SDS011;64505;51.458;7.556;2023-04-16T06:20:25;45.13;;;20.23;;
75774;SDS011;64505;51.458;7.556;2023-04-16T06:22:27;42.13;;;20.67;;
75774;SDS011;64505;51.458;7.556;2023-04-16T06:24:28;38.92;;;19.67;;
75774;SDS011;64505;51.458;7.556;2023-04-16T06:26:30;41.05;;;19.83;;
75774;SDS011;64505;51.458;7.556;2023-04-16T06:28:31;39.10;;;18.73;;
75774;SDS011;64505;51.458;7.556;2023-04-16T06:30:33;40.35;;;19.65;;
75774;SDS011;64505;51.458;7.556;2023-04-16T06:32:34;41.40;;;19.63;;
75774;SDS011;64505;51.458;7.556;2023-04-16T06:34:36;44.38;;;20.27;;
75774;SDS011;64505;51.458;7.556;2023-04-16T06:36:38;44.58;;;20.90;;
75774;SDS011;64505;51.458;7.556;2023-04-16T06:38:40;42.58;;;19.67;;
75774;SDS011;64505;51.458;7.556;2023-04-16T06:40:41;41.05;;;18.25;;
75774;SDS011;64505;51.458;7.556;2023-04-16T06:42:43;38.05;;;18.38;;
75774;SDS011;64505;51.458;7.556;2023-04-16T06:44:45;38.22;;;18.38;;
75774;SDS011;64505;51.458;7.556;2023-04-16T06:46:47;38.72;;;18.90;;
75774;SDS011;64505;51.458;7.556;2023-04-16T06:48:50;41.88;;;19.40;;
75774;SDS011;64505;51.458;7.556;2023-04-16T06:50:51;39.42;;;18.27;;
75774;SDS011;64505;51.458;7.556;2023-04-16T06:52:53;37.42;;;18.20;;
75774;SDS011;64505;51.458;7.556;2023-04-16T06:54:55;40.45;;;18.77;;
75774;SDS011;64505;51.458;7.556;2023-04-16T06:56:56;39.95;;;19.48;;
75774;SDS011;64505;51.458;7.556;2023-04-16T06:58:58;35.33;;;18.30;;
75774;SDS011;64505;51.458;7.556;2023-04-16T07:01:01;36.60;;;18.35;;
75774;SDS011;64505;51.458;7.556;2023-04-16T07:03:02;36.15;;;18.15;;
75774;SDS011;64505;51.458;7.556;2023-04-16T07:05:04;36.33;;;20.02;;
75774;SDS011;64505;51.458;7.556;2023-04-16T07:07:06;40.83;;;19.77;;
75774;SDS011;64505;51.458;7.556;2023-04-16T07:09:08;36.38;;;19.30;;
75774;SDS011;64505;51.458;7.556;2023-04-16T07:11:09;36.03;;;18.42;;
75774;SDS011;64505;51.458;7.556;2023-04-16T07:13:11;35.58;;;18.20;;
75774;SDS011;64505;51.458;7.556;2023-04-16T07:15:13;37.22;;;18.63;;
75774;SDS011;64505;51.458;7.556;2023-04-16T07:17:14;39.80;;;19.73;;
75774;SDS011;64505;51.458;7.556;2023-04-16T07:19:16;39.05;;;19.40;;
75774;SDS011;64505;51.458;7.556;2023-04-16T07:21:17;34.58;;;17.63;;
75774;SDS011;64505;51.458;7.556;2023-04-16T07:23:19;36.35;;;19.20;;
75774;SDS011;64505;51.458;7.556;2023-04-16T07:25:20;35.65;;;19.48;;
75774;SDS011;64505;51.458;7.556;2023-04-16T07:27:22;37.13;;;19.88;;
75774;SDS011;64505;51.458;7.556;2023-04-16T07:29:23;38.90;;;18.83;;
75774;SDS011;64505;51.458;7.556;2023-04-16T07:31:25;35.90;;;18.50;;
75774;SDS011;64505;51.458;7.556;2023-04-16T07:33:27;36.30;;;18.20;;
75774;SDS011;64505;51.458;7.556;2023-04-16T07:35:29;37.80;;;19.23;;
75774;SDS011;64505;51.458;7.556;2023-04-16T07:37:31;35.53;;;19.67;;
75774;SDS011;64505;51.458;7.556;2023-04-16T07:39:32;39.30;;;19.90;;
75774;SDS011;64505;51.458;7.556;2023-04-16T07:41:34;38.40;;;20.05;;
75774;SDS011;64505;51.458;7.556;2023-04-16T07:43:35;39.78;;;20.60;;
75774;SDS011;64505;51.458;7.556;2023-04-16T07:45:37;38.58;;;20.75;;
75774;SDS011;64505;51.458;7.556;2023-04-16T07:47:40;38.50;;;20.25;;
75774;SDS011;64505;51.458;7.556;2023-04-16T07:49:42;37.83;;;20.77;;
75774;SDS011;64505;51.458;7.556;2023-04-16T07:51:43;38.55;;;20.40;;
75774;SDS011;64505;51.458;7.556;2023-04-16T07:53:45;36.33;;;19.60;;
75774;SDS011;64505;51.458;7.556;2023-04-16T07:55:46;34.85;;;18.88;;
75774;SDS011;64505;51.458;7.556;2023-04-16T07:57:48;34.80;;;19.85;;
75774;SDS011;64505;51.458;7.556;2023-04-16T07:59:49;37.67;;;20.23;;
75774;SDS011;64505;51.458;7.556;2023-04-16T08:01:51;37.80;;;19.50;;
75774;SDS011;64505;51.458;7.556;2023-04-16T08:03:54;41.65;;;21.48;;
75774;SDS011;64505;51.458;7.556;2023-04-16T08:05:56;44.05;;;20.98;;
75774;SDS011;64505;51.458;7.556;2023-04-16T08:07:58;42.15;;;20.60;;
75774;SDS011;64505;51.458;7.556;2023-04-16T08:09:59;44.60;;;21.23;;
75774;SDS011;64505;51.458;7.556;2023-04-16T08:12:01;36.05;;;20.98;;
75774;SDS011;64505;51.458;7.556;2023-04-16T08:14:03;39.58;;;20.73;;
75774;SDS011;64505;51.458;7.556;2023-04-16T08:16:05;38.88;;;20.20;;
75774;SDS011;64505;51.458;7.556;2023-04-16T08:18:07;40.95;;;21.17;;
75774;SDS011;64505;51.458;7.556;2023-04-16T08:20:13;38.88;;;20.02;;
75774;SDS011;64505;51.458;7.556;2023-04-16T08:22:19;37.30;;;19.67;;
75774;SDS011;64505;51.458;7.556;2023-04-16T08:24:20;39.28;;;20.60;;
75774;SDS011;64505;51.458;7.556;2023-04-16T08:26:22;41.33;;;21.30;;
75774;SDS011;64505;51.458;7.556;2023-04-16T08:28:23;39.78;;;20.63;;
75774;SDS011;64505;51.458;7.556;2023-04-16T08:30:25;36.20;;;20.42;;
75774;SDS011;64505;51.458;7.556;2023-04-16T08:32:26;38.67;;;21.48;;
75774;SDS011;64505;51.458;7.556;2023-04-16T08:34:28;36.83;;;20.13;;
75774;SDS011;64505;51.458;7.556;2023-04-16T08:36:29;39.30;;;20.70;;
75774;SDS011;64505;51.458;7.556;2023-04-16T08:38:31;42.35;;;21.98;;
75774;SDS011;64505;51.458;7.556;2023-04-16T08:40:33;38.08;;;21.65;;
75774;SDS011;64505;51.458;7.556;2023-04-16T08:42:44;43.30;;;21.80;;
75774;SDS011;64505;51.458;7.556;2023-04-16T08:44:49;39.13;;;21.30;;
75774;SDS011;64505;51.458;7.556;2023-04-16T08:46:59;42.65;;;22.23;;
75774;SDS011;64505;51.458;7.556;2023-04-16T08:49:01;40.78;;;23.38;;
75774;SDS011;64505;51.458;7.556;2023-04-16T08:51:06;40.50;;;22.52;;
75774;SDS011;64505;51.458;7.556;2023-04-16T08:53:10;42.78;;;23.98;;
75774;SDS011;64505;51.458;7.556;2023-04-16T08:55:24;40.65;;;20.55;;
75774;SDS011;64505;51.458;7.556;2023-04-16T08:57:36;39.17;;;21.75;;
75774;SDS011;64505;51.458;7.556;2023-04-16T08:59:47;40.55;;;22.83;;
75774;SDS011;64505;51.458;7.556;2023-04-16T09:01:48;45.00;;;22.88;;
75774;SDS011;64505;51.458;7.556;2023-04-16T09:03:52;40.00;;;21.50;;
75774;SDS011;64505;51.458;7.556;2023-04-16T09:05:54;41.88;;;23.38;;
75774;SDS011;64505;51.458;7.556;2023-04-16T09:07:58;39.10;;;21.85;;
75774;SDS011;64505;51.458;7.556;2023-04-16T09:09:59;37.85;;;21.35;;
75774;SDS011;64505;51.458;7.556;2023-04-16T09:12:01;42.85;;;21.75;;
75774;SDS011;64505;51.458;7.556;2023-04-16T09:14:03;40.28;;;22.45;;
75774;SDS011;64505;51.458;7.556;2023-04-16T09:16:11;41.05;;;22.23;;
75774;SDS011;64505;51.458;7.556;2023-04-16T09:18:18;39.00;;;20.88;;
75774;SDS011;64505;51.458;7.556;2023-04-16T09:20:21;41.80;;;21.23;;
75774;SDS011;64505;51.458;7.556;2023-04-16T09:22:22;44.83;;;23.35;;
75774;SDS011;64505;51.458;7.556;2023-04-16T09:24:24;38.00;;;21.63;;
75774;SDS011;64505;51.458;7.556;2023-04-16T09:26:26;40.47;;;21.35;;
75774;SDS011;64505;51.458;7.556;2023-04-16T09:28:37;55.78;;;28.20;;
75774;SDS011;64505;51.458;7.556;2023-04-16T09:30:39;42.53;;;22.45;;
75774;SDS011;64505;51.458;7.556;2023-04-16T09:32:41;44.53;;;23.80;;
75774;SDS011;64505;51.458;7.556;2023-04-16T09:34:55;39.20;;;22.25;;
75774;SDS011;64505;51.458;7.556;2023-04-16T09:37:16;37.67;;;21.55;;
75774;SDS011;64505;51.458;7.556;2023-04-16T09:39:18;37.05;;;20.55;;
75774;SDS011;64505;51.458;7.556;2023-04-16T09:41:23;36.55;;;21.38;;
75774;SDS011;64505;51.458;7.556;2023-04-16T09:43:27;40.72;;;22.23;;
75774;SDS011;64505;51.458;7.556;2023-04-16T09:45:31;40.05;;;21.58;;
75774;SDS011;64505;51.458;7.556;2023-04-16T09:47:47;36.35;;;21.25;;
75774;SDS011;64505;51.458;7.556;2023-04-16T09:49:49;40.00;;;21.70;;
75774;SDS011;64505;51.458;7.556;2023-04-16T09:51:50;37.30;;;21.30;;
75774;SDS011;64505;51.458;7.556;2023-04-16T09:53:56;42.60;;;21.30;;
75774;SDS011;64505;51.458;7.556;2023-04-16T09:56:01;37.60;;;21.10;;
75774;SDS011;64505;51.458;7.556;2023-04-16T09:58:03;36.45;;;20.75;;
75774;SDS011;64505;51.458;7.556;2023-04-16T10:00:05;38.53;;;21.92;;
75774;SDS011;64505;51.458;7.556;2023-04-16T10:02:12;36.85;;;20.30;;
75774;SDS011;64505;51.458;7.556;2023-04-16T10:04:16;35.35;;;20.45;;
75774;SDS011;64505;51.458;7.556;2023-04-16T10:06:18;35.10;;;20.45;;
75774;SDS011;64505;51.458;7.556;2023-04-16T10:08:20;35.00;;;19.50;;
75774;SDS011;64505;51.458;7.556;2023-04-16T10:10:24;35.67;;;19.83;;
75774;SDS011;64505;51.458;7.556;2023-04-16T10:12:25;35.17;;;19.00;;
75774;SDS011;64505;51.458;7.556;2023-04-16T10:14:28;33.85;;;19.38;;
75774;SDS011;64505;51.458;7.556;2023-04-16T10:16:30;33.63;;;20.55;;
75774;SDS011;64505;51.458;7.556;2023-04-16T10:18:36;38.13;;;20.52;;
75774;SDS011;64505;51.458;7.556;2023-04-16T10:20:42;36.92;;;20.63;;
75774;SDS011;64505;51.458;7.556;2023-04-16T10:22:44;32.20;;;17.95;;
75774;SDS011;64505;51.458;7.556;2023-04-16T10:24:46;30.75;;;18.08;;
75774;SDS011;64505;51.458;7.556;2023-04-16T10:26:48;28.40;;;16.73;;
75774;SDS011;64505;51.458;7.556;2023-04-16T10:28:52;29.40;;;17.17;;
75774;SDS011;64505;51.458;7.556;2023-04-16T10:30:56;28.52;;;16.58;;
75774;SDS011;64505;51.458;7.556;2023-04-16T10:32:58;26.55;;;15.82;;
75774;SDS011;64505;51.458;7.556;2023-04-16T10:35:02;27.50;;;16.42;;
75774;SDS011;64505;51.458;7.556;2023-04-16T10:37:04;26.45;;;16.02;;
75774;SDS011;64505;51.458;7.556;2023-04-16T10:39:10;28.15;;;15.60;;
75774;SDS011;64505;51.458;7.556;2023-04-16T10:41:18;26.45;;;15.43;;
75774;SDS011;64505;51.458;7.556;2023-04-16T10:43:21;26.85;;;15.50;;
75774;SDS011;64505;51.458;7.556;2023-04-16T10:45:29;25.95;;;15.52;;
75774;SDS011;64505;51.458;7.556;2023-04-16T10:49:40;26.92;;;15.77;;
75774;SDS011;64505;51.458;7.556;2023-04-16T10:51:42;26.23;;;16.63;;
75774;SDS011;64505;51.458;7.556;2023-04-16T10:53:53;29.58;;;16.65;;
75774;SDS011;64505;51.458;7.556;2023-04-16T10:58:25;27.90;;;16.02;;
75774;SDS011;64505;51.458;7.556;2023-04-16T11:00:29;31.65;;;18.15;;
75774;SDS011;64505;51.458;7.556;2023-04-16T11:02:31;28.10;;;16.25;;
75774;SDS011;64505;51.458;7.556;2023-04-16T11:04:34;28.52;;;16.27;;
75774;SDS011;64505;51.458;7.556;2023-04-16T11:06:37;26.67;;;15.30;;
75774;SDS011;64505;51.458;7.556;2023-04-16T11:08:39;26.48;;;16.02;;
75774;SDS011;64505;51.458;7.556;2023-04-16T11:10:56;24.92;;;14.73;;
75774;SDS011;64505;51.458;7.556;2023-04-16T11:12:58;26.42;;;16.10;;
75774;SDS011;64505;51.458;7.556;2023-04-16T11:15:04;25.35;;;15.45;;
75774;SDS011;64505;51.458;7.556;2023-04-16T11:17:07;25.88;;;17.60;;
75774;SDS011;64505;51.458;7.556;2023-04-16T11:19:14;24.67;;;15.15;;
75774;SDS011;64505;51.458;7.556;2023-04-16T11:21:16;24.52;;;14.55;;
75774;SDS011;64505;51.458;7.556;2023-04-16T11:23:18;29.60;;;15.30;;
75774;SDS011;64505;51.458;7.556;2023-04-16T11:25:20;26.33;;;15.43;;
75774;SDS011;64505;51.458;7.556;2023-04-16T11:27:23;25.42;;;15.10;;
75774;SDS011;64505;51.458;7.556;2023-04-16T11:29:24;24.60;;;15.07;;
75774;SDS011;64505;51.458;7.556;2023-04-16T11:31:26;23.90;;;14.88;;
75774;SDS011;64505;51.458;7.556;2023-04-16T11:33:27;27.42;;;14.38;;
75774;SDS011;64505;51.458;7.556;2023-04-16T11:35:31;23.15;;;14.80;;
75774;SDS011;64505;51.458;7.556;2023-04-16T11:37:33;24.15;;;14.45;;
75774;SDS011;64505;51.458;7.556;2023-04-16T11:39:51;22.77;;;14.77;;
75774;SDS011;64505;51.458;7.556;2023-04-16T11:41:53;22.10;;;14.73;;
75774;SDS011;64505;51.458;7.556;2023-04-16T11:43:55;23.67;;;14.55;;
75774;SDS011;64505;51.458;7.556;2023-04-16T11:45:58;24.35;;;15.20;;
75774;SDS011;64505;51.458;7.556;2023-04-16T11:48:02;20.85;;;13.02;;
75774;SDS011;64505;51.458;7.556;2023-04-16T11:52:28;20.00;;;12.75;;
75774;SDS011;64505;51.458;7.556;2023-04-16T11:54:33;24.77;;;12.88;;
75774;SDS011;64505;51.458;7.556;2023-04-16T11:56:36;21.77;;;12.68;;
75774;SDS011;64505;51.458;7.556;2023-04-16T11:58:38;22.33;;;13.32;;
75774;SDS011;64505;51.458;7.556;2023-04-16T12:00:43;20.65;;;12.18;;
75774;SDS011;64505;51.458;7.556;2023-04-16T12:02:49;20.98;;;13.30;;